createdAt,value
2016-05-16T00:00:20.396Z,0
2016-05-16T00:01:18.978Z,0
2016-05-16T00:02:36.309Z,0
2016-05-16T00:03:20.514Z,0
2016-05-16T00:04:20.501Z,0
2016-05-16T00:05:19.534Z,0
2016-05-16T00:06:19.570Z,0
2016-05-16T00:07:18.994Z,0
2016-05-16T00:08:20.700Z,0
2016-05-16T00:09:19.670Z,0
2016-05-16T00:10:20.111Z,0
2016-05-16T00:11:18.910Z,0
2016-05-16T00:12:19.022Z,0
2016-05-16T00:13:19.198Z,0
2016-05-16T00:14:19.044Z,0
2016-05-16T00:15:18.875Z,0
2016-05-16T00:16:18.877Z,0
2016-05-16T00:17:18.896Z,0
2016-05-16T00:18:18.866Z,0
2016-05-16T00:19:18.697Z,0
2016-05-16T00:20:18.810Z,0
2016-05-16T00:21:18.844Z,0
2016-05-16T00:22:18.674Z,0
2016-05-16T00:23:18.662Z,0
2016-05-16T00:24:18.805Z,0
2016-05-16T00:25:18.808Z,0
2016-05-16T00:26:18.810Z,0
2016-05-16T00:27:18.798Z,0
2016-05-16T00:28:18.472Z,0
2016-05-16T00:29:18.771Z,0
2016-05-16T00:30:18.618Z,0
2016-05-16T00:31:18.792Z,0
2016-05-16T00:32:18.608Z,0
2016-05-16T00:33:18.595Z,0
2016-05-16T00:34:18.738Z,0
2016-05-16T00:35:18.772Z,0
2016-05-16T00:36:18.728Z,0
2016-05-16T00:37:18.746Z,0
2016-05-16T00:38:18.405Z,0
2016-05-16T00:39:18.705Z,0
2016-05-16T00:40:18.692Z,0
2016-05-16T00:41:18.695Z,0
2016-05-16T00:42:18.697Z,0
2016-05-16T00:43:18.684Z,0
2016-05-16T00:44:18.514Z,0
2016-05-16T00:45:18.502Z,0
2016-05-16T00:46:18.645Z,0
2016-05-16T00:47:18.648Z,0
2016-05-16T00:48:18.635Z,0
2016-05-16T00:49:18.622Z,0
2016-05-16T00:50:18.625Z,0
2016-05-16T00:51:18.612Z,0
2016-05-16T00:52:18.599Z,0
2016-05-16T00:53:18.602Z,0
2016-05-16T00:54:18.605Z,0
2016-05-16T00:55:18.576Z,0
2016-05-16T00:56:18.579Z,0
2016-05-16T00:57:18.566Z,0
2016-05-16T00:58:18.569Z,0
2016-05-16T00:59:18.554Z,0
2016-05-16T01:00:18.542Z,0
2016-05-16T01:01:18.529Z,0
2016-05-16T01:02:18.532Z,0
2016-05-16T01:03:18.504Z,0
2016-05-16T01:04:18.522Z,0
2016-05-16T01:05:18.853Z,0
2016-05-16T01:06:18.495Z,0
2016-05-16T01:07:18.327Z,0
2016-05-16T01:08:18.470Z,0
2016-05-16T01:09:18.473Z,0
2016-05-16T01:10:18.148Z,0
2016-05-16T01:11:21.337Z,0
2016-05-16T01:12:20.372Z,0
2016-05-16T01:13:18.281Z,0
2016-05-16T01:14:18.518Z,0
2016-05-16T01:15:18.442Z,0
2016-05-16T01:16:19.054Z,0
2016-05-16T01:17:18.697Z,0
2016-05-16T01:18:46.747Z,0
2016-05-16T01:19:18.531Z,0
2016-05-16T01:20:18.394Z,0
2016-05-16T01:21:19.896Z,0
2016-05-16T01:22:19.085Z,0
2016-05-16T01:23:18.199Z,0
2016-05-16T01:24:18.920Z,0
2016-05-16T01:25:19.032Z,0
2016-05-16T01:26:18.846Z,0
2016-05-16T01:27:20.038Z,0
2016-05-16T01:28:19.289Z,0
2016-05-16T01:29:18.152Z,0
2016-05-16T01:30:18.138Z,0
2016-05-16T01:31:18.548Z,0
2016-05-16T01:32:19.004Z,0
2016-05-16T01:33:18.116Z,0
2016-05-16T01:34:18.259Z,0
2016-05-16T01:35:18.292Z,0
2016-05-16T01:36:18.108Z,0
2016-05-16T01:37:18.096Z,0
2016-05-16T01:38:18.082Z,0
2016-05-16T01:39:18.225Z,0
2016-05-16T01:40:18.229Z,0
2016-05-16T01:41:18.215Z,0
2016-05-16T01:42:18.217Z,0
2016-05-16T01:43:18.049Z,0
2016-05-16T01:44:18.192Z,0
2016-05-16T01:45:18.178Z,0
2016-05-16T01:46:18.182Z,0
2016-05-16T01:47:18.013Z,0
2016-05-16T01:48:18.155Z,0
2016-05-16T01:49:18.159Z,0
2016-05-16T01:50:18.442Z,0
2016-05-16T01:51:17.850Z,0
2016-05-16T01:52:18.207Z,0
2016-05-16T01:53:18.234Z,0
2016-05-16T01:54:18.104Z,0
2016-05-16T01:55:18.305Z,0
2016-05-16T01:56:18.312Z,0
2016-05-16T01:57:18.313Z,0
2016-05-16T01:58:18.316Z,0
2016-05-16T01:59:18.192Z,0
2016-05-16T02:00:18.350Z,0
2016-05-16T02:01:18.329Z,0
2016-05-16T02:02:18.181Z,0
2016-05-16T02:03:18.330Z,0
2016-05-16T02:04:18.338Z,0
2016-05-16T02:05:18.330Z,0
2016-05-16T02:06:18.335Z,0
2016-05-16T02:07:18.340Z,0
2016-05-16T02:08:18.157Z,0
2016-05-16T02:09:18.162Z,0
2016-05-16T02:10:18.292Z,0
2016-05-16T02:11:18.155Z,0
2016-05-16T02:12:18.299Z,0
2016-05-16T02:13:18.130Z,0
2016-05-16T02:14:18.290Z,0
2016-05-16T02:15:18.121Z,0
2016-05-16T02:16:18.109Z,0
2016-05-16T02:17:18.251Z,0
2016-05-16T02:18:18.240Z,0
2016-05-16T02:19:18.085Z,0
2016-05-16T02:20:18.744Z,0
2016-05-16T02:21:18.216Z,0
2016-05-16T02:22:18.078Z,0
2016-05-16T02:23:18.220Z,0
2016-05-16T02:24:18.053Z,0
2016-05-16T02:25:18.195Z,0
2016-05-16T02:26:18.042Z,0
2016-05-16T02:27:18.044Z,0
2016-05-16T02:28:18.188Z,0
2016-05-16T02:29:18.175Z,4
2016-05-16T02:31:18.852Z,4
2016-05-16T02:32:19.308Z,4
2016-05-16T02:33:18.669Z,4
2016-05-16T02:34:18.001Z,4
2016-05-16T02:35:18.972Z,0
2016-05-16T02:36:18.631Z,4
2016-05-16T02:37:32.305Z,4
2016-05-16T02:38:18.808Z,4
2016-05-16T02:39:19.264Z,4
2016-05-16T02:40:33.658Z,4
2016-05-16T02:41:17.941Z,8
2016-05-16T02:42:18.584Z,4
2016-05-16T02:43:18.821Z,8
2016-05-16T02:44:18.449Z,8
2016-05-16T02:45:18.577Z,8
2016-05-16T02:46:18.751Z,12
2016-05-16T02:47:18.052Z,12
2016-05-16T02:48:18.304Z,16
2016-05-16T02:49:18.198Z,20
2016-05-16T02:50:17.903Z,24
2016-05-16T02:51:18.031Z,24
2016-05-16T02:52:18.064Z,24
2016-05-16T02:53:18.021Z,28
2016-05-16T02:54:18.008Z,32
2016-05-16T02:55:18.011Z,36
2016-05-16T02:56:17.997Z,44
2016-05-16T02:57:17.672Z,56
2016-05-16T02:58:17.831Z,64
2016-05-16T02:59:17.975Z,68
2016-05-16T03:00:17.977Z,72
2016-05-16T03:01:17.980Z,80
2016-05-16T03:02:17.826Z,88
2016-05-16T03:03:17.938Z,104
2016-05-16T03:04:17.941Z,120
2016-05-16T03:05:18.724Z,140
2016-05-16T03:06:17.930Z,148
2016-05-16T03:07:17.777Z,156
2016-05-16T03:08:17.921Z,172
2016-05-16T03:09:17.751Z,184
2016-05-16T03:10:17.941Z,184
2016-05-16T03:11:17.897Z,188
2016-05-16T03:12:17.728Z,196
2016-05-16T03:13:17.887Z,236
2016-05-16T03:14:17.874Z,256
2016-05-16T03:15:17.876Z,264
2016-05-16T03:16:17.863Z,272
2016-05-16T03:17:17.866Z,276
2016-05-16T03:18:17.854Z,292
2016-05-16T03:19:17.856Z,304
2016-05-16T03:20:17.968Z,316
2016-05-16T03:21:17.846Z,336
2016-05-16T03:22:17.833Z,364
2016-05-16T03:23:17.664Z,384
2016-05-16T03:24:17.823Z,396
2016-05-16T03:25:17.810Z,412
2016-05-16T03:26:17.640Z,412
2016-05-16T03:27:17.800Z,440
2016-05-16T03:28:17.786Z,472
2016-05-16T03:29:17.477Z,528
2016-05-16T03:30:17.620Z,540
2016-05-16T03:31:17.623Z,552
2016-05-16T03:32:17.610Z,576
2016-05-16T03:33:17.597Z,588
2016-05-16T03:34:17.756Z,616
2016-05-16T03:35:17.461Z,700
2016-05-16T03:36:17.746Z,776
2016-05-16T03:37:17.577Z,796
2016-05-16T03:38:17.735Z,820
2016-05-16T03:39:17.722Z,856
2016-05-16T03:40:17.569Z,936
2016-05-16T03:41:17.712Z,980
2016-05-16T03:42:17.558Z,1032
2016-05-16T03:43:17.390Z,1056
2016-05-16T03:44:17.689Z,1012
2016-05-16T03:45:17.691Z,1012
2016-05-16T03:46:17.679Z,1032
2016-05-16T03:47:17.666Z,1016
2016-05-16T03:48:17.668Z,1120
2016-05-16T03:49:19.702Z,1012
2016-05-16T03:50:17.815Z,984
2016-05-16T03:51:17.645Z,1016
2016-05-16T03:52:18.695Z,956
2016-05-16T03:53:17.479Z,948
2016-05-16T03:54:17.637Z,924
2016-05-16T03:55:19.203Z,908
2016-05-16T03:56:18.487Z,912
2016-05-16T03:57:17.615Z,920
2016-05-16T03:59:19.854Z,960
2016-05-16T04:00:18.435Z,1000
2016-05-16T04:01:18.875Z,1024
2016-05-16T04:02:18.347Z,1020
2016-05-16T04:03:17.584Z,1072
2016-05-16T04:04:17.899Z,1188
2016-05-16T04:05:18.324Z,1352
2016-05-16T04:06:18.952Z,1412
2016-05-16T04:07:31.970Z,1480
2016-05-16T04:08:17.847Z,1544
2016-05-16T04:09:17.835Z,1548
2016-05-16T04:10:17.524Z,1660
2016-05-16T04:11:17.371Z,1736
2016-05-16T04:12:17.624Z,1756
2016-05-16T04:13:17.266Z,1812
2016-05-16T04:14:17.504Z,1940
2016-05-16T04:15:17.351Z,1808
2016-05-16T04:16:17.510Z,1804
2016-05-16T04:17:17.168Z,1876
2016-05-16T04:18:17.484Z,1900
2016-05-16T04:19:17.314Z,1856
2016-05-16T04:20:17.504Z,1848
2016-05-16T04:21:17.476Z,2028
2016-05-16T04:22:17.479Z,2212
2016-05-16T04:23:17.450Z,2448
2016-05-16T04:24:17.546Z,2628
2016-05-16T04:25:17.284Z,3152
2016-05-16T04:26:17.270Z,3252
2016-05-16T04:27:17.289Z,2928
2016-05-16T04:28:17.261Z,2960
2016-05-16T04:29:17.123Z,2648
2016-05-16T04:30:17.266Z,2868
2016-05-16T04:31:17.097Z,3468
2016-05-16T04:32:17.396Z,4812
2016-05-16T04:33:17.242Z,5752
2016-05-16T04:34:17.386Z,6356
2016-05-16T04:35:18.233Z,6324
2016-05-16T04:36:17.375Z,6056
2016-05-16T04:37:17.363Z,4916
2016-05-16T04:38:17.366Z,4252
2016-05-16T04:39:17.369Z,4020
2016-05-16T04:40:17.355Z,3332
2016-05-16T04:41:17.202Z,3432
2016-05-16T04:42:17.189Z,3204
2016-05-16T04:43:17.347Z,3612
2016-05-16T04:44:17.335Z,3676
2016-05-16T04:45:17.337Z,3380
2016-05-16T04:46:17.168Z,3216
2016-05-16T04:47:17.312Z,3176
2016-05-16T04:48:17.315Z,2856
2016-05-16T04:49:17.317Z,2680
2016-05-16T04:50:16.991Z,3072
2016-05-16T04:51:17.306Z,2728
2016-05-16T04:52:17.138Z,3088
2016-05-16T04:53:17.281Z,3500
2016-05-16T04:54:17.284Z,3100
2016-05-16T04:55:17.270Z,3260
2016-05-16T04:56:17.257Z,3492
2016-05-16T04:57:17.260Z,3132
2016-05-16T04:58:17.262Z,3340
2016-05-16T04:59:17.094Z,3428
2016-05-16T05:00:17.097Z,3308
2016-05-16T05:01:17.084Z,3592
2016-05-16T05:02:17.258Z,3732
2016-05-16T05:03:17.230Z,4032
2016-05-16T05:04:17.232Z,4156
2016-05-16T05:05:17.156Z,4024
2016-05-16T05:06:17.206Z,4348
2016-05-16T05:07:17.069Z,4556
2016-05-16T05:08:18.243Z,4780
2016-05-16T05:09:17.777Z,4908
2016-05-16T05:10:17.202Z,4376
2016-05-16T05:11:18.016Z,4404
2016-05-16T05:12:17.535Z,4168
2016-05-16T05:13:17.491Z,4376
2016-05-16T05:15:17.184Z,4200
2016-05-16T05:16:17.765Z,4572
2016-05-16T05:17:19.282Z,4788
2016-05-16T05:18:17.738Z,5628
2016-05-16T05:19:18.304Z,5532
2016-05-16T05:20:17.994Z,5036
2016-05-16T05:21:17.012Z,4892
2016-05-16T05:22:17.327Z,5020
2016-05-16T05:23:17.673Z,5560
2016-05-16T05:24:16.974Z,5884
2016-05-16T05:25:17.117Z,5000
2016-05-16T05:26:18.042Z,5092
2016-05-16T05:27:17.122Z,5184
2016-05-16T05:28:17.297Z,4776
2016-05-16T05:29:16.956Z,4704
2016-05-16T05:30:17.192Z,5232
2016-05-16T05:31:16.945Z,5072
2016-05-16T05:32:17.089Z,5724
2016-05-16T05:33:17.092Z,5368
2016-05-16T05:34:17.095Z,5460
2016-05-16T05:35:16.941Z,5720
2016-05-16T05:36:17.068Z,5540
2016-05-16T05:37:17.072Z,5372
2016-05-16T05:38:17.058Z,5716
2016-05-16T05:39:17.061Z,5208
2016-05-16T05:40:17.047Z,5468
2016-05-16T05:41:17.050Z,5776
2016-05-16T05:42:17.037Z,6080
2016-05-16T05:43:17.041Z,6536
2016-05-16T05:44:16.871Z,6744
2016-05-16T05:45:17.046Z,6572
2016-05-16T05:46:16.876Z,6140
2016-05-16T05:47:17.020Z,6192
2016-05-16T05:48:17.021Z,6144
2016-05-16T05:49:17.025Z,6396
2016-05-16T05:50:17.277Z,6716
2016-05-16T05:51:16.999Z,6436
2016-05-16T05:52:17.001Z,7080
2016-05-16T05:53:16.990Z,7512
2016-05-16T05:54:16.992Z,8440
2016-05-16T05:55:16.979Z,7640
2016-05-16T05:56:16.982Z,7712
2016-05-16T05:57:16.968Z,7728
2016-05-16T05:58:16.971Z,7576
2016-05-16T05:59:16.801Z,8132
2016-05-16T06:00:16.961Z,7848
2016-05-16T06:01:16.964Z,8232
2016-05-16T06:02:16.951Z,9284
2016-05-16T06:03:16.937Z,8816
2016-05-16T06:04:16.784Z,7436
2016-05-16T06:05:16.803Z,7136
2016-05-16T06:06:16.774Z,7680
2016-05-16T06:07:16.933Z,7196
2016-05-16T06:08:16.920Z,7156
2016-05-16T06:09:16.782Z,8072
2016-05-16T06:10:16.925Z,8732
2016-05-16T06:11:16.912Z,7696
2016-05-16T06:12:16.916Z,6808
2016-05-16T06:13:16.761Z,6972
2016-05-16T06:14:16.749Z,7796
2016-05-16T06:15:16.891Z,6824
2016-05-16T06:16:16.754Z,5988
2016-05-16T06:17:16.912Z,6036
2016-05-16T06:18:16.743Z,5964
2016-05-16T06:19:16.888Z,5652
2016-05-16T06:20:17.405Z,5448
2016-05-16T06:21:16.721Z,5544
2016-05-16T06:22:16.738Z,5636
2016-05-16T06:23:16.710Z,6308
2016-05-16T06:24:16.713Z,6508
2016-05-16T06:25:16.856Z,6956
2016-05-16T06:26:17.640Z,6996
2016-05-16T06:27:16.706Z,6760
2016-05-16T06:28:18.676Z,6868
2016-05-16T06:29:17.382Z,7356
2016-05-16T06:30:17.557Z,6836
2016-05-16T06:31:17.653Z,6880
2016-05-16T06:32:17.860Z,7012
2016-05-16T06:33:16.939Z,7116
2016-05-16T06:34:18.084Z,6792
2016-05-16T06:35:32.353Z,7100
2016-05-16T06:36:19.901Z,7276
2016-05-16T06:37:16.811Z,7084
2016-05-16T06:38:16.922Z,8556
2016-05-16T06:39:17.988Z,8556
2016-05-16T06:40:16.850Z,7540
2016-05-16T06:41:16.806Z,7536
2016-05-16T06:42:19.058Z,7316
2016-05-16T06:43:17.795Z,7232
2016-05-16T06:44:17.579Z,6196
2016-05-16T06:45:16.800Z,6692
2016-05-16T06:46:16.772Z,6916
2016-05-16T06:47:16.775Z,6960
2016-05-16T06:48:16.606Z,6980
2016-05-16T06:49:16.608Z,7328
2016-05-16T06:50:16.643Z,7496
2016-05-16T06:51:16.771Z,7596
2016-05-16T06:52:16.757Z,6580
2016-05-16T06:53:16.588Z,6992
2016-05-16T06:54:16.762Z,8872
2016-05-16T06:55:16.749Z,8732
2016-05-16T06:56:16.737Z,8680
2016-05-16T06:57:16.583Z,9152
2016-05-16T06:58:16.429Z,7264
2016-05-16T06:59:16.963Z,8396
2016-05-16T07:00:16.794Z,9280
2016-05-16T07:01:16.718Z,8120
2016-05-16T07:02:16.862Z,8488
2016-05-16T07:03:16.411Z,9040
2016-05-16T07:04:16.556Z,8904
2016-05-16T07:05:16.589Z,9008
2016-05-16T07:06:16.544Z,9916
2016-05-16T07:07:16.548Z,10524
2016-05-16T07:08:16.706Z,12892
2016-05-16T07:09:16.537Z,13520
2016-05-16T07:10:16.696Z,14184
2016-05-16T07:11:16.683Z,13808
2016-05-16T07:12:16.686Z,16768
2016-05-16T07:13:16.533Z,17504
2016-05-16T07:14:16.675Z,19040
2016-05-16T07:15:16.663Z,18304
2016-05-16T07:16:16.666Z,18496
2016-05-16T07:17:16.668Z,25824
2016-05-16T07:18:16.671Z,27328
2016-05-16T07:19:16.657Z,108576
2016-05-16T07:20:16.910Z,62912
2016-05-16T07:21:16.663Z,72768
2016-05-16T07:22:16.666Z,59840
2016-05-16T07:23:16.669Z,58784
2016-05-16T07:24:16.655Z,65568
2016-05-16T07:25:16.658Z,75776
2016-05-16T07:26:16.645Z,98496
2016-05-16T07:27:16.648Z,97280
2016-05-16T07:28:16.666Z,82752
2016-05-16T07:29:16.653Z,43456
2016-05-16T07:30:16.657Z,25504
2016-05-16T07:31:16.674Z,27232
2016-05-16T07:32:16.661Z,88384
2016-05-16T07:33:16.508Z,19680
2016-05-16T07:34:16.667Z,105568
2016-05-16T07:35:17.045Z,98688
2016-05-16T07:36:16.672Z,61248
2016-05-16T07:37:16.519Z,51072
2016-05-16T07:38:16.709Z,95808
2016-05-16T07:39:16.696Z,30016
2016-05-16T07:40:16.699Z,65728
2016-05-16T07:41:16.700Z,95328
2016-05-16T07:42:16.720Z,84736
2016-05-16T07:43:16.566Z,48352
2016-05-16T07:44:16.725Z,29888
2016-05-16T07:46:18.527Z,25600
2016-05-16T07:47:17.138Z,19328
2016-05-16T07:48:17.969Z,21152
2016-05-16T07:49:17.348Z,25952
2016-05-16T07:50:17.491Z,22592
2016-05-16T07:51:17.260Z,20096
2016-05-16T07:52:18.152Z,19584
2016-05-16T07:53:16.640Z,31168
2016-05-16T07:54:16.799Z,34848
2016-05-16T07:55:18.457Z,40032
2016-05-16T07:56:18.523Z,29856
2016-05-16T07:57:17.822Z,24640
2016-05-16T07:58:16.841Z,27232
2016-05-16T07:59:16.891Z,34336
2016-05-16T08:00:16.846Z,71616
2016-05-16T08:01:18.162Z,26976
2016-05-16T08:02:17.664Z,20032
2016-05-16T08:03:16.870Z,69440
2016-05-16T08:04:16.872Z,36992
2016-05-16T08:05:17.031Z,23296
2016-05-16T08:06:16.893Z,22112
2016-05-16T08:07:16.834Z,26528
2016-05-16T08:08:16.898Z,27072
2016-05-16T08:09:16.808Z,94816
2016-05-16T08:10:16.904Z,55328
2016-05-16T08:11:16.766Z,22432
2016-05-16T08:12:16.941Z,17824
2016-05-16T08:13:16.943Z,13548
2016-05-16T08:14:16.931Z,12824
2016-05-16T08:15:16.950Z,13904
2016-05-16T08:16:16.795Z,56032
2016-05-16T08:17:16.955Z,87072
2016-05-16T08:18:16.800Z,36832
2016-05-16T08:19:16.991Z,58816
2016-05-16T08:20:16.978Z,23808
2016-05-16T08:21:38.074Z,55264
2016-05-16T08:22:16.983Z,31232
2016-05-16T08:23:23.799Z,20128
2016-05-16T08:24:17.005Z,18112
2016-05-16T08:25:17.023Z,16832
2016-05-16T08:26:17.010Z,18464
2016-05-16T08:27:17.028Z,25024
2016-05-16T08:28:17.031Z,81536
2016-05-16T08:29:17.017Z,85312
2016-05-16T08:30:17.051Z,96832
2016-05-16T08:31:17.040Z,89856
2016-05-16T08:32:16.885Z,77344
2016-05-16T08:33:17.107Z,36096
2016-05-16T08:34:17.062Z,25312
2016-05-16T08:35:17.034Z,20896
2016-05-16T08:36:16.928Z,18144
2016-05-16T08:37:17.086Z,65632
2016-05-16T08:38:17.104Z,33088
2016-05-16T08:39:17.092Z,29376
2016-05-16T08:40:16.953Z,26944
2016-05-16T08:41:17.112Z,29728
2016-05-16T08:42:17.147Z,24896
2016-05-16T08:43:16.975Z,26656
2016-05-16T08:44:16.961Z,87104
2016-05-16T08:45:16.825Z,67456
2016-05-16T08:46:17.141Z,33920
2016-05-16T08:47:17.176Z,20160
2016-05-16T08:48:17.147Z,19680
2016-05-16T08:49:16.850Z,19616
2016-05-16T08:50:17.590Z,20320
2016-05-16T08:51:17.764Z,21216
2016-05-16T08:52:17.030Z,19328
2016-05-16T08:53:17.189Z,19904
2016-05-16T08:54:17.191Z,21344
2016-05-16T08:55:16.897Z,18240
2016-05-16T08:56:17.057Z,16512
2016-05-16T08:57:17.232Z,16128
2016-05-16T08:58:17.077Z,16704
2016-05-16T08:59:17.065Z,17312
2016-05-16T09:00:17.223Z,16608
2016-05-16T09:01:17.226Z,14996
2016-05-16T09:02:17.228Z,13584
2016-05-16T09:03:17.262Z,13916
2016-05-16T09:04:18.596Z,15360
2016-05-16T09:05:17.237Z,15696
2016-05-16T09:06:17.851Z,16992
2016-05-16T09:07:17.633Z,21728
2016-05-16T09:08:17.261Z,22368
2016-05-16T09:09:18.047Z,21568
2016-05-16T09:11:18.459Z,16896
2016-05-16T09:12:46.368Z,14952
2016-05-16T09:13:17.306Z,14124
2016-05-16T09:14:18.014Z,11864
2016-05-16T09:15:17.576Z,11360
2016-05-16T09:16:18.175Z,10108
2016-05-16T09:17:18.068Z,9828
2016-05-16T09:18:17.662Z,9940
2016-05-16T09:19:17.211Z,10336
2016-05-16T09:20:32.296Z,13704
2016-05-16T09:21:18.017Z,16952
2016-05-16T09:22:17.580Z,18784
2016-05-16T09:23:17.785Z,19872
2016-05-16T09:24:17.304Z,19424
2016-05-16T09:25:17.588Z,16928
2016-05-16T09:26:17.294Z,14188
2016-05-16T09:27:17.140Z,13372
2016-05-16T09:28:17.143Z,13892
2016-05-16T09:29:17.146Z,13536
2016-05-16T09:30:17.148Z,12648
2016-05-16T09:31:17.666Z,12200
2016-05-16T09:32:17.309Z,12740
2016-05-16T09:33:17.296Z,13868
2016-05-16T09:34:17.143Z,14976
2016-05-16T09:35:17.318Z,15424
2016-05-16T09:36:17.165Z,15140
2016-05-16T09:37:17.307Z,16544
2016-05-16T09:38:17.342Z,18976
2016-05-16T09:39:17.156Z,18752
2016-05-16T09:40:17.315Z,19968
2016-05-16T09:41:17.350Z,21952
2016-05-16T09:42:17.164Z,18912
2016-05-16T09:43:17.308Z,13820
2016-05-16T09:44:17.311Z,10264
2016-05-16T09:45:17.314Z,8296
2016-05-16T09:46:17.316Z,7332
2016-05-16T09:47:17.319Z,7120
2016-05-16T09:48:17.321Z,7760
2016-05-16T09:49:17.324Z,9144
2016-05-16T09:50:17.014Z,11012
2016-05-16T09:51:17.376Z,12944
2016-05-16T09:52:17.317Z,14432
2016-05-16T09:53:17.319Z,15412
2016-05-16T09:54:17.697Z,15760
2016-05-16T09:55:17.683Z,15428
2016-05-16T09:56:17.343Z,14600
2016-05-16T09:57:17.174Z,14320
2016-05-16T09:58:17.317Z,14724
2016-05-16T09:59:17.352Z,16544
2016-05-16T10:00:17.166Z,19008
2016-05-16T10:01:17.341Z,19744
2016-05-16T10:02:17.156Z,19680
2016-05-16T10:03:17.346Z,19520
2016-05-16T10:04:17.332Z,20544
2016-05-16T10:05:17.335Z,21984
2016-05-16T10:06:17.698Z,23232
2016-05-16T10:07:17.326Z,23200
2016-05-16T10:08:17.173Z,22528
2016-05-16T10:09:17.346Z,21440
2016-05-16T10:10:17.334Z,20896
2016-05-16T10:11:17.180Z,20608
2016-05-16T10:12:17.183Z,20896
2016-05-16T10:13:17.342Z,21504
2016-05-16T10:14:40.254Z,22112
2016-05-16T10:15:18.082Z,23008
2016-05-16T10:16:17.037Z,23392
2016-05-16T10:17:17.353Z,22336
2016-05-16T10:18:28.311Z,21792
2016-05-16T10:19:17.342Z,22240
2016-05-16T10:20:17.344Z,21984
2016-05-16T10:21:17.223Z,20832
2016-05-16T10:22:17.366Z,21280
2016-05-16T10:23:17.806Z,22112
2016-05-16T10:24:18.450Z,23584
2016-05-16T10:25:18.233Z,25280
2016-05-16T10:26:17.814Z,25952
2016-05-16T10:27:18.316Z,26528
2016-05-16T10:28:17.976Z,26688
2016-05-16T10:29:18.432Z,26688
2016-05-16T10:30:18.607Z,25760
2016-05-16T10:31:17.406Z,24960
2016-05-16T10:32:18.924Z,24288
2016-05-16T10:33:19.286Z,24736
2016-05-16T10:34:17.742Z,24832
2016-05-16T10:35:18.057Z,22624
2016-05-16T10:36:18.168Z,18848
2016-05-16T10:37:17.782Z,16480
2016-05-16T10:38:17.878Z,14524
2016-05-16T10:39:19.411Z,13892
2016-05-16T10:40:17.415Z,14780
2016-05-16T10:41:17.402Z,16288
2016-05-16T10:42:17.904Z,17984
2016-05-16T10:44:17.409Z,20608
2016-05-16T10:45:17.725Z,21984
2016-05-16T10:46:17.430Z,23520
2016-05-16T10:47:17.261Z,25472
2016-05-16T10:48:17.420Z,26816
2016-05-16T10:49:17.454Z,26208
2016-05-16T10:50:17.425Z,24544
2016-05-16T10:51:17.647Z,22720
2016-05-16T10:52:17.430Z,19584
2016-05-16T10:53:17.434Z,15936
2016-05-16T10:54:17.452Z,13028
2016-05-16T10:55:17.283Z,11696
2016-05-16T10:56:17.458Z,11160
2016-05-16T10:57:17.288Z,11368
2016-05-16T10:58:17.503Z,12360
2016-05-16T10:59:17.397Z,13668
2016-05-16T11:00:17.602Z,15196
2016-05-16T11:01:17.652Z,17056
2016-05-16T11:02:17.685Z,18368
2016-05-16T11:03:17.569Z,19776
2016-05-16T11:04:17.729Z,21568
2016-05-16T11:05:17.608Z,23456
2016-05-16T11:06:18.440Z,24000
2016-05-16T11:07:17.648Z,23712
2016-05-16T11:08:17.797Z,22720
2016-05-16T11:09:17.837Z,21824
2016-05-16T11:10:17.830Z,21600
2016-05-16T11:11:17.823Z,22400
2016-05-16T11:12:17.848Z,22016
2016-05-16T11:13:17.853Z,21312
2016-05-16T11:14:17.841Z,21504
2016-05-16T11:15:17.863Z,21376
2016-05-16T11:16:17.695Z,21472
2016-05-16T11:17:17.857Z,21280
2016-05-16T11:18:17.876Z,21536
2016-05-16T11:19:17.879Z,22080
2016-05-16T11:20:17.884Z,21568
2016-05-16T11:21:18.073Z,21184
2016-05-16T11:22:17.890Z,21600
2016-05-16T11:23:17.894Z,21728
2016-05-16T11:24:17.911Z,21152
2016-05-16T11:25:17.884Z,21472
2016-05-16T11:26:17.730Z,22080
2016-05-16T11:27:17.905Z,22752
2016-05-16T11:28:17.736Z,24000
2016-05-16T11:29:17.911Z,25472
2016-05-16T11:30:17.600Z,25920
2016-05-16T11:31:17.745Z,25152
2016-05-16T11:32:17.903Z,24672
2016-05-16T11:33:17.937Z,24288
2016-05-16T11:34:17.909Z,24448
2016-05-16T11:35:17.771Z,24800
2016-05-16T11:36:17.977Z,25344
2016-05-16T11:37:17.932Z,25504
2016-05-16T11:38:17.919Z,25184
2016-05-16T11:39:17.922Z,24928
2016-05-16T11:40:17.800Z,24064
2016-05-16T11:41:17.927Z,22368
2016-05-16T11:42:19.493Z,21312
2016-05-16T11:43:17.948Z,21632
2016-05-16T11:44:19.341Z,22496
2016-05-16T11:45:17.954Z,22400
2016-05-16T11:46:18.128Z,21856
2016-05-16T11:47:18.554Z,20256
2016-05-16T11:48:19.759Z,18976
2016-05-16T11:49:18.855Z,18240
2016-05-16T11:50:17.968Z,18816
2016-05-16T11:51:20.173Z,20608
2016-05-16T11:52:18.582Z,23040
2016-05-16T11:53:19.569Z,25472
2016-05-16T11:54:19.665Z,26752
2016-05-16T11:55:18.137Z,26048
2016-05-16T11:56:18.562Z,24064
2016-05-16T11:57:18.345Z,22976
2016-05-16T11:58:19.239Z,22912
2016-05-16T11:59:18.835Z,22208
2016-05-16T12:00:18.682Z,21248
2016-05-16T12:01:32.172Z,20320
2016-05-16T12:02:18.015Z,19776
2016-05-16T12:03:18.003Z,19008
2016-05-16T12:04:17.849Z,18176
2016-05-16T12:05:18.055Z,17984
2016-05-16T12:06:18.104Z,18368
2016-05-16T12:07:17.857Z,19168
2016-05-16T12:08:18.016Z,19776
2016-05-16T12:09:18.034Z,20096
2016-05-16T12:10:17.724Z,20352
2016-05-16T12:11:17.868Z,20832
2016-05-16T12:12:18.042Z,21728
2016-05-16T12:13:18.044Z,22720
2016-05-16T12:14:18.063Z,23520
2016-05-16T12:15:17.879Z,24000
2016-05-16T12:16:18.053Z,24320
2016-05-16T12:17:17.899Z,24960
2016-05-16T12:18:18.058Z,25440
2016-05-16T12:19:18.060Z,25504
2016-05-16T12:20:18.063Z,25408
2016-05-16T12:21:18.425Z,25536
2016-05-16T12:22:18.068Z,25856
2016-05-16T12:23:18.072Z,26432
2016-05-16T12:24:18.074Z,26944
2016-05-16T12:25:17.765Z,26752
2016-05-16T12:26:18.079Z,26208
2016-05-16T12:27:18.098Z,24896
2016-05-16T12:28:18.085Z,23072
2016-05-16T12:29:18.087Z,20480
2016-05-16T12:30:17.950Z,17600
2016-05-16T12:31:18.093Z,14340
2016-05-16T12:32:18.096Z,11512
2016-05-16T12:33:17.958Z,9328
2016-05-16T12:34:17.961Z,7544
2016-05-16T12:35:17.963Z,6260
2016-05-16T12:36:18.591Z,5380
2016-05-16T12:37:17.968Z,4852
2016-05-16T12:38:18.128Z,4584
2016-05-16T12:39:18.131Z,4532
2016-05-16T12:40:17.961Z,4700
2016-05-16T12:41:18.152Z,5056
2016-05-16T12:42:17.966Z,5640
2016-05-16T12:43:17.969Z,6476
2016-05-16T12:44:18.127Z,7452
2016-05-16T12:45:17.990Z,8580
2016-05-16T12:46:18.133Z,9772
2016-05-16T12:47:18.136Z,11032
2016-05-16T12:48:18.138Z,12820
2016-05-16T12:49:18.157Z,14872
2016-05-16T12:50:18.144Z,16672
2016-05-16T12:51:18.225Z,17760
2016-05-16T12:52:17.994Z,18400
2016-05-16T12:53:18.167Z,18880
2016-05-16T12:54:18.155Z,18784
2016-05-16T12:55:18.002Z,18976
2016-05-16T12:56:18.004Z,18784
2016-05-16T12:57:18.162Z,18496
2016-05-16T12:58:18.165Z,18464
2016-05-16T12:59:18.168Z,18464
2016-05-16T13:00:20.203Z,19136
2016-05-16T13:01:19.628Z,21056
2016-05-16T13:02:18.676Z,21408
2016-05-16T13:03:18.164Z,21312
2016-05-16T13:04:18.010Z,21504
2016-05-16T13:05:18.934Z,21696
2016-05-16T13:06:18.453Z,22400
2016-05-16T13:08:18.380Z,24768
2016-05-16T13:09:18.477Z,24032
2016-05-16T13:10:20.011Z,24352
2016-05-16T13:11:20.091Z,25056
2016-05-16T13:12:18.188Z,25792
2016-05-16T13:13:19.299Z,26464
2016-05-16T13:14:18.037Z,26912
2016-05-16T13:15:18.196Z,27040
2016-05-16T13:16:18.449Z,26880
2016-05-16T13:17:19.796Z,26784
2016-05-16T13:18:18.860Z,26624
2016-05-16T13:19:32.646Z,26176
2016-05-16T13:21:18.462Z,25568
2016-05-16T13:22:18.559Z,25152
2016-05-16T13:23:18.483Z,24736
2016-05-16T13:24:18.345Z,24352
2016-05-16T13:25:18.223Z,23552
2016-05-16T13:26:18.210Z,22784
2016-05-16T13:27:18.072Z,22400
2016-05-16T13:28:18.231Z,22176
2016-05-16T13:29:18.077Z,21792
2016-05-16T13:30:18.221Z,21536
2016-05-16T13:31:18.083Z,21440
2016-05-16T13:32:18.273Z,21472
2016-05-16T13:33:18.088Z,21440